CheckWX is a tool to help pilots better visualize weather data.  It is not intended as a substitute for an official pre-flight weather briefing.

00:38:40 UTC

KWRI TAF
Mc Guire Air Force Base
Wrightstown, New Jersey, USA
TAF KWRI 110200Z 1102/1208 24012G20KT 9999 BKN007 OVC015 QNH2964INS TEMPO 1102/1105 23015G25KT 9000 -SHRA BR SCT007 OVC015 BECMG 1104/1105 22008KT 9999 BKN020 QNH2966INS BECMG 1111/1112 22010G18KT 9999 SCT045 BKN100 QNH2967INS BECMG 1116/1117 23012G20KT 9999 SCT050 SCT250 QNH2964INS TEMPO 1117/1121 22020G35KT 3200 TSRA BKN030CB BECMG 1123/1124 23009KT 9999 SCT050 QNH2964INS TX31/1118Z TN21/1110Z

Jul-11@
02:00 UTC

Jul-11 @ 02:00 UTC

Jul-11@
04:00 UTC

Jul-11 @ 04:00 UTC

TAF KWRI 110200Z 1102/1208 24012G20KT 9999 BKN007 OVC015 QNH2964INS

Expired

Wind
  • 240° at 12 KTS
  • {Gusting to 20 KTS
Cloud Levels
  • Broken at 700' AGL
  • Overcast at 1,500' AGL

Jul-11@
02:00 UTC

Jul-11 @ 02:00 UTC

Jul-11@
05:00 UTC

Jul-11 @ 05:00 UTC

TEMPO 1102/1105 23015G25KT 9000 -SHRA BR SCT007 OVC015

Expired

Wind
  • 230° at 15 KTS
  • {Gusting to 25 KTS
Conditions
Light Showers, Rain, Mist
Cloud Levels
  • Scattered at 700' AGL
  • Overcast at 1,500' AGL

Jul-11@
04:00 UTC

Jul-11 @ 04:00 UTC

Jul-11@
11:00 UTC

Jul-11 @ 11:00 UTC

BECMG 1104/1105 22008KT 9999 BKN020 QNH2966INS

Expired

Wind
  • 220° at 8 KTS
Cloud Levels
  • Broken at 2,000' AGL

Jul-11@
11:00 UTC

Jul-11 @ 11:00 UTC

Jul-11@
16:00 UTC

Jul-11 @ 16:00 UTC

BECMG 1111/1112 22010G18KT 9999 SCT045 BKN100 QNH2967INS

Expired

Wind
  • 220° at 10 KTS
  • {Gusting to 18 KTS
Cloud Levels
  • Scattered at 4,500' AGL
  • Broken at 10,000' AGL

Jul-11@
16:00 UTC

Jul-11 @ 16:00 UTC

Jul-11@
23:00 UTC

Jul-11 @ 23:00 UTC

BECMG 1116/1117 23012G20KT 9999 SCT050 SCT250 QNH2964INS

Expired

Wind
  • 230° at 12 KTS
  • {Gusting to 20 KTS
Cloud Levels
  • Scattered at 5,000' AGL
  • Scattered at 25,000' AGL

Jul-11@
17:00 UTC

Jul-11 @ 17:00 UTC

Jul-11@
21:00 UTC

Jul-11 @ 21:00 UTC

TEMPO 1117/1121 22020G35KT 3200 TSRA BKN030CB

Expired

Wind
  • 220° at 20 KTS
  • {Gusting to 35 KTS
Conditions
Thunderstorm, Rain
Cloud Levels
  • Broken at 3,000' AGL

Jul-11@
23:00 UTC

Jul-11 @ 23:00 UTC

Jul-12@
08:00 UTC

Jul-12 @ 08:00 UTC

BECMG 1123/1124 23009KT 9999 SCT050 QNH2964INS TX31/1118Z TN21/1110Z

Becoming

Becoming Conditions expected by Sun, Jul 12, 2020 @ 00:00 UTC

Wind
  • 230° at 9 KTS
Cloud Levels
  • Scattered at 5,000' AGL